createdAt,value
2023-01-29T16:41:43.926Z,16.77
2023-01-29T17:16:36.095Z,16.08
2023-01-29T17:21:37.683Z,15.93
2023-01-29T17:26:37.575Z,14.60
2023-01-29T17:37:23.573Z,14.77
2023-01-29T17:42:23.129Z,14.00
2023-01-29T17:48:35.482Z,14.60
2023-01-29T18:00:31.204Z,14.57
2023-01-29T18:12:15.122Z,14.27
2023-01-29T18:17:29.016Z,14.93
2023-01-29T18:40:53.243Z,14.38
2023-01-29T18:58:28.997Z,14.52
2023-01-29T19:03:42.015Z,15.88
2023-01-29T19:08:48.237Z,16.88
2023-01-29T19:13:53.519Z,18.75
2023-01-29T19:18:56.169Z,18.27
2023-01-29T19:24:14.749Z,18.33
2023-01-29T19:29:29.904Z,19.33
2023-01-29T19:34:38.735Z,20.48
2023-01-29T19:39:44.494Z,22.02
2023-01-29T19:45:01.783Z,22.08
2023-01-29T19:50:10.218Z,23.38
2023-01-29T19:55:14.369Z,23.45
2023-01-29T20:00:19.118Z,23.77
2023-01-29T20:05:22.018Z,25.38
2023-01-29T20:10:26.175Z,24.35
2023-01-29T20:15:26.093Z,23.63
2023-01-29T20:20:23.148Z,25.77
2023-01-29T20:25:26.682Z,26.20
2023-01-29T20:30:25.984Z,26.38
2023-01-29T20:35:27.604Z,25.80
2023-01-29T20:40:27.487Z,26.80
2023-01-29T20:45:24.375Z,25.77
2023-01-29T20:50:20.899Z,24.17
2023-01-29T20:55:17.379Z,27.80
2023-01-29T21:06:14.819Z,25.87
2023-01-29T21:11:11.391Z,26.10
2023-01-29T21:16:10.781Z,25.85
2023-01-29T21:21:07.326Z,26.52
2023-01-29T21:26:05.295Z,25.10
2023-01-29T21:37:02.706Z,25.45
2023-01-29T21:42:18.107Z,27.75
2023-01-29T21:47:20.709Z,25.23
2023-01-29T21:52:19.027Z,25.30
2023-01-29T21:57:23.648Z,25.33
2023-01-29T22:02:22.197Z,24.92
2023-01-29T22:07:21.725Z,25.38
2023-01-29T22:12:25.610Z,24.73
2023-01-29T22:28:32.326Z,24.65
2023-01-29T22:33:33.445Z,24.45
2023-01-29T22:38:30.849Z,23.67
2023-01-29T22:43:33.119Z,22.55
2023-01-29T22:48:36.659Z,22.13
2023-01-29T22:53:33.248Z,22.10
2023-01-29T22:58:29.793Z,21.85
2023-01-29T23:03:28.571Z,19.73
2023-01-29T23:08:29.573Z,19.55
2023-01-29T23:18:56.106Z,20.45
2023-01-29T23:23:55.395Z,19.98
2023-01-29T23:28:56.683Z,19.80
2023-01-29T23:33:54.157Z,19.25
2023-01-29T23:38:50.710Z,18.90
2023-01-29T23:43:47.194Z,18.90
2023-01-29T23:48:43.707Z,19.77
2023-01-29T23:53:43.029Z,20.20
2023-01-29T23:58:39.660Z,19.10
